Terminal Aerodrome Forecast
Issued by NWS Shreveport, LA

Home | Current Version | Previous Version | Text Only | Print | Product List | Glossary On
Versions: 1 2 3 4 5 6 7 8 9 10 11 12 13 14 15 16 17 18
000
FTUS44 KSHV 181700
TAFTYR
TAF
KTYR 181739Z 1818/1918 VRB04KT P6SM VCSH BKN025
     FM182100 15006KT P6SM VCTS BKN040CB
     FM190100 15004KT P6SM SCT150 BKN250
     FM190700 13004KT P6SM BKN007
      TEMPO 1909/1913 3SM BR OVC004
     FM191600 11006KT P6SM OVC010=

USA.gov is the U.S. government's official web portal to all federal, state and local government web resources and services.